首页
METAR-TAF:

METAR-TAF

机场 :

莱比锡/哈雷机场

莱比锡, 德国

纬度: 51-25N, 经度: 012-14E, 海拔: 144米

当前天气观测

该预报发布于26分钟前的00:50 UTC
风速4节,风向南转南东
温度 16°C
湿度 77%
气压 1011 hPa
能见度10公里或以上
小雨,

METAR: EDDP 170050Z AUTO 15004KT 9999 -RA NSC 16/12 Q1011

时间: 03:16 (01:16 UTC)

预报

该预报发布于2小时和16分钟前的23:00 UTC
预报有效从17日的 00点(UTC)到 17日的 24点(UTC)
风速6节,风向南转西南
能见度10公里或以上
1500米以下无云,无积雨云
几率 30% :
短暂存在
从 17日的 15点(UTC)到 17日的 19点(UTC)
风速15节,风向西南,有时为25节阵风
散云层高于2500英尺, 积雨云.
雷暴, 雨,

TAF: EDDP 162300Z 1700/1724 20006KT CAVOK PROB30 TEMPO 1715/1719 23015G25KT TSRA SCT025CB

超过4000个机场的气象观测和天气预报(METAR&TAF报告)。

可查询的气象台以黄色和红色小点在地图上表示。

将鼠标移到小点上方,可查看气象台名称。

然后点击查看天气观测和预报。

如需切换地图:点击带黑十字的绿色按钮放大地图;点击带横线的绿色按钮缩小地图;或者点击绿色箭头查看邻近地区的地图。


METAR-TAF: